Time,TemperatureF,DewpointF,PressureIn,WindDirection,WindDirectionDegrees,WindSpeedMPH,WindSpeedGustMPH,Humidity,HourlyPrecipIn,Conditions,Clouds,dailyrainin,SoftwareType,DateUTC
2013-03-21 00:00:00,0.0,0.0,29.83,WSW,242,6.3,8.3,0,0.00,,---,0.00,VWS V14.01,2013-03-21 04:00:00,
2013-03-21 00:01:00,0.0,0.0,29.83,WSW,248,6.3,12.8,0,0.00,,---,0.00,VWS V14.01,2013-03-21 04:01:00,
2013-03-21 00:02:00,0.0,0.0,29.83,West,274,11.0,11.0,0,0.00,,---,0.00,VWS V14.01,2013-03-21 04:02:00,
2013-03-21 00:07:00,0.0,0.0,29.83,West,259,6.3,7.6,0,0.00,,---,0.00,VWS V14.01,2013-03-21 04:07:00,
2013-03-21 00:10:00,0.0,0.0,29.83,WSW,243,6.3,7.6,0,0.00,,---,0.00,VWS V14.01,2013-03-21 04:10:00,
2013-03-21 00:16:00,0.0,0.0,29.83,West,259,4.0,10.1,0,0.00,,---,0.00,VWS V14.01,2013-03-21 04:16:00,
2013-03-21 00:21:00,0.0,0.0,29.83,WSW,258,6.3,8.7,0,0.00,,---,0.00,VWS V14.01,2013-03-21 04:21:00,
2013-03-21 00:27:00,0.0,0.0,29.83,West,264,8.1,13.2,0,0.00,,---,0.00,VWS V14.01,2013-03-21 04:27:00,
2013-03-21 00:33:00,0.0,0.0,29.83,West,262,6.7,12.8,0,0.00,,---,0.00,VWS V14.01,2013-03-21 04:33:00,
2013-03-21 00:38:00,0.0,0.0,29.83,WSW,249,5.4,6.3,0,0.00,,---,0.00,VWS V14.01,2013-03-21 04:38:00,
2013-03-21 00:43:00,0.0,0.0,29.80,West,270,7.2,8.7,0,0.00,,---,0.00,VWS V14.01,2013-03-21 04:43:00,
2013-03-21 00:48:00,0.0,0.0,29.80,SW,224,3.6,8.1,0,0.00,,---,0.00,VWS V14.01,2013-03-21 04:48:00,
2013-03-21 00:54:00,0.0,0.0,29.80,SSW,211,5.4,8.1,0,0.00,,---,0.00,VWS V14.01,2013-03-21 04:54:00,
2013-03-21 00:59:00,0.0,0.0,29.80,SW,224,7.6,7.6,0,0.00,,---,0.00,VWS V14.01,2013-03-21 04:59:00,
2013-03-21 01:04:00,0.0,0.0,29.80,SW,221,4.0,5.4,0,0.00,,---,0.00,VWS V14.01,2013-03-21 05:04:00,
2013-03-21 01:09:00,0.0,0.0,29.80,West,261,4.9,5.4,0,0.00,,---,0.00,VWS V14.01,2013-03-21 05:09:00,
2013-03-21 01:14:00,0.0,0.0,29.80,WSW,237,4.0,4.9,0,0.00,,---,0.00,VWS V14.01,2013-03-21 05:14:00,
2013-03-21 01:19:00,0.0,0.0,29.80,WSW,245,4.0,5.8,0,0.00,,---,0.00,VWS V14.01,2013-03-21 05:19:00,
2013-03-21 01:24:00,0.0,0.0,29.80,SW,231,2.7,5.8,0,0.00,,---,0.00,VWS V14.01,2013-03-21 05:24:00,
2013-03-21 01:29:00,0.0,0.0,29.80,SW,223,3.6,4.0,0,0.00,,---,0.00,VWS V14.01,2013-03-21 05:29:00,
2013-03-21 01:34:00,0.0,0.0,29.80,SW,226,2.7,5.4,0,0.00,,---,0.00,VWS V14.01,2013-03-21 05:34:00,
2013-03-21 01:39:00,0.0,0.0,29.80,WSW,253,2.7,5.8,0,0.00,,---,0.00,VWS V14.01,2013-03-21 05:39:00,
2013-03-21 01:44:00,0.0,0.0,29.77,WSW,240,3.6,4.0,0,0.00,,---,0.00,VWS V14.01,2013-03-21 05:44:00,
2013-03-21 01:49:00,0.0,0.0,29.77,SW,227,3.6,5.4,0,0.00,,---,0.00,VWS V14.01,2013-03-21 05:49:00,
2013-03-21 01:54:00,0.0,0.0,29.77,SSW,207,3.1,5.8,0,0.00,,---,0.00,VWS V14.01,2013-03-21 05:54:00,
2013-03-21 01:59:00,0.0,0.0,29.80,SW,225,2.7,7.2,0,0.00,,---,0.00,VWS V14.01,2013-03-21 05:59:00,
2013-03-21 02:04:00,0.0,0.0,29.80,West,265,4.0,5.4,0,0.00,,---,0.00,VWS V14.01,2013-03-21 06:04:00,
2013-03-21 02:09:00,0.0,0.0,29.80,North,357,0.0,0.0,0,0.00,,---,0.00,VWS V14.01,2013-03-21 06:09:00,
2013-03-21 02:14:00,0.0,0.0,29.77,North,353,0.0,0.0,0,0.00,,---,0.00,VWS V14.01,2013-03-21 06:14:00,
2013-03-21 02:19:00,0.0,0.0,29.77,West,265,5.4,5.4,0,0.00,,---,0.00,VWS V14.01,2013-03-21 06:19:00,
2013-03-21 02:24:00,0.0,0.0,29.77,NW,314,4.0,4.0,0,0.00,,---,0.00,VWS V14.01,2013-03-21 06:24:00,
2013-03-21 02:29:00,0.0,0.0,29.77,North,357,0.0,0.0,0,0.00,,---,0.00,VWS V14.01,2013-03-21 06:29:00,
2013-03-21 02:34:00,0.0,0.0,29.77,North,350,0.0,0.0,0,0.00,,---,0.00,VWS V14.01,2013-03-21 06:34:00,
2013-03-21 02:39:00,0.0,0.0,29.77,NW,324,0.0,0.0,0,0.00,,---,0.00,VWS V14.01,2013-03-21 06:39:00,
2013-03-21 02:44:00,0.0,0.0,29.77,NW,305,0.0,0.0,0,0.00,,---,0.00,VWS V14.01,2013-03-21 06:44:00,
2013-03-21 02:49:00,0.0,0.0,29.77,NNW,343,0.0,0.0,0,0.00,,---,0.00,VWS V14.01,2013-03-21 06:49:00,
2013-03-21 02:54:00,0.0,0.0,29.77,North,4,4.0,4.9,0,0.00,,---,0.00,VWS V14.01,2013-03-21 06:54:00,
2013-03-21 02:59:00,0.0,0.0,29.77,NNE,17,3.6,3.6,0,0.00,,---,0.00,VWS V14.01,2013-03-21 06:59:00,
2013-03-21 03:05:00,0.0,0.0,29.77,North,357,2.7,4.0,0,0.00,,---,0.00,VWS V14.01,2013-03-21 07:05:00,
2013-03-21 03:10:00,0.0,0.0,29.77,North,2,2.2,2.7,0,0.00,,---,0.00,VWS V14.01,2013-03-21 07:10:00,
2013-03-21 03:15:00,0.0,0.0,29.77,North,353,0.0,3.1,0,0.00,,---,0.00,VWS V14.01,2013-03-21 07:15:00,
2013-03-21 03:20:00,0.0,0.0,29.77,North,4,2.7,3.6,0,0.00,,---,0.00,VWS V14.01,2013-03-21 07:20:00,
2013-03-21 03:25:00,0.0,0.0,29.77,North,353,4.0,5.4,0,0.00,,---,0.00,VWS V14.01,2013-03-21 07:25:00,
2013-03-21 03:30:00,0.0,0.0,29.77,NNE,26,2.2,4.0,0,0.00,,---,0.00,VWS V14.01,2013-03-21 07:30:00,
2013-03-21 03:35:00,0.0,0.0,29.77,North,9,2.7,6.3,0,0.00,,---,0.00,VWS V14.01,2013-03-21 07:35:00,
2013-03-21 03:40:00,0.0,0.0,29.77,NNE,15,0.0,2.7,0,0.00,,---,0.00,VWS V14.01,2013-03-21 07:40:00,
2013-03-21 03:45:00,0.0,0.0,29.77,North,357,3.6,5.4,0,0.00,,---,0.00,VWS V14.01,2013-03-21 07:45:00,
2013-03-21 03:50:00,0.0,0.0,29.77,NE,54,3.6,7.6,0,0.00,,---,0.00,VWS V14.01,2013-03-21 07:50:00,
2013-03-21 03:55:00,0.0,0.0,29.77,NE,54,8.3,9.2,0,0.00,,---,0.00,VWS V14.01,2013-03-21 07:55:00,
2013-03-21 04:00:00,0.0,0.0,29.74,NE,51,9.6,15.0,0,0.00,,---,0.00,VWS V14.01,2013-03-21 08:00:00,
2013-03-21 04:05:00,0.0,0.0,29.74,NE,36,7.6,8.3,0,0.00,,---,0.00,VWS V14.01,2013-03-21 08:05:00,
2013-03-21 04:10:00,0.0,0.0,29.74,NE,45,7.6,15.4,0,0.00,,---,0.00,VWS V14.01,2013-03-21 08:10:00,
2013-03-21 04:15:00,0.0,0.0,29.74,NNE,12,8.1,8.3,0,0.00,,---,0.00,VWS V14.01,2013-03-21 08:15:00,
2013-03-21 04:20:00,0.0,0.0,29.74,NNE,14,8.1,12.8,0,0.00,,---,0.00,VWS V14.01,2013-03-21 08:20:00,
2013-03-21 04:25:00,0.0,0.0,29.74,NNE,18,8.1,13.2,0,0.00,,---,0.00,VWS V14.01,2013-03-21 08:25:00,
2013-03-21 04:30:00,0.0,0.0,29.74,NE,44,4.0,4.0,0,0.00,,---,0.00,VWS V14.01,2013-03-21 08:30:00,
2013-03-21 04:35:00,0.0,0.0,29.74,NE,52,4.0,15.0,0,0.00,,---,0.00,VWS V14.01,2013-03-21 08:35:00,
2013-03-21 04:40:00,0.0,0.0,29.74,NNE,18,5.4,14.1,0,0.00,,---,0.00,VWS V14.01,2013-03-21 08:40:00,
2013-03-21 04:45:00,0.0,0.0,29.77,North,11,6.3,6.3,0,0.00,,---,0.00,VWS V14.01,2013-03-21 08:45:00,
2013-03-21 04:50:00,0.0,0.0,29.77,NNE,28,12.8,15.4,0,0.00,,---,0.00,VWS V14.01,2013-03-21 08:50:00,
2013-03-21 04:55:00,0.0,0.0,29.77,NNE,24,8.3,8.3,0,0.00,,---,0.00,VWS V14.01,2013-03-21 08:55:00,
2013-03-21 05:00:00,0.0,0.0,29.77,NNE,28,6.3,8.3,0,0.00,,---,0.00,VWS V14.01,2013-03-21 09:00:00,
2013-03-21 05:05:00,0.0,0.0,29.77,North,6,10.1,10.1,0,0.00,,---,0.00,VWS V14.01,2013-03-21 09:05:00,
2013-03-21 05:10:00,0.0,0.0,29.77,NNW,333,6.7,8.3,0,0.00,,---,0.00,VWS V14.01,2013-03-21 09:10:00,
2013-03-21 05:15:00,0.0,0.0,29.77,NNE,16,5.8,8.1,0,0.00,,---,0.00,VWS V14.01,2013-03-21 09:15:00,
2013-03-21 05:20:00,0.0,0.0,29.77,NE,35,8.1,8.1,0,0.00,,---,0.00,VWS V14.01,2013-03-21 09:20:00,
2013-03-21 05:25:00,0.0,0.0,29.77,NE,51,7.6,10.5,0,0.00,,---,0.00,VWS V14.01,2013-03-21 09:25:00,
2013-03-21 05:30:00,0.0,0.0,29.77,NNE,23,8.7,8.7,0,0.00,,---,0.00,VWS V14.01,2013-03-21 09:30:00,
2013-03-21 05:35:00,0.0,0.0,29.77,NE,44,10.5,10.5,0,0.00,,---,0.00,VWS V14.01,2013-03-21 09:35:00,
2013-03-21 05:40:00,0.0,0.0,29.77,North,4,11.0,11.0,0,0.00,,---,0.00,VWS V14.01,2013-03-21 09:40:00,
2013-03-21 05:45:00,0.0,0.0,29.77,NE,34,7.6,12.8,0,0.00,,---,0.00,VWS V14.01,2013-03-21 09:45:00,
2013-03-21 05:50:00,0.0,0.0,29.77,NNE,18,3.6,3.6,0,0.00,,---,0.00,VWS V14.01,2013-03-21 09:50:00,
2013-03-21 05:55:00,0.0,0.0,29.77,NE,40,5.4,10.5,0,0.00,,---,0.00,VWS V14.01,2013-03-21 09:55:00,
2013-03-21 06:00:00,0.0,0.0,29.77,NNE,25,4.0,10.5,0,0.00,,---,0.00,VWS V14.01,2013-03-21 10:00:00,
2013-03-21 06:05:00,0.0,0.0,29.77,NNW,339,4.0,5.8,0,0.00,,---,0.00,VWS V14.01,2013-03-21 10:05:00,
2013-03-21 06:10:00,0.0,0.0,29.77,North,11,6.3,6.3,0,0.00,,---,0.00,VWS V14.01,2013-03-21 10:10:00,
2013-03-21 06:15:00,0.0,0.0,29.77,North,7,6.3,7.6,0,0.00,,---,0.00,VWS V14.01,2013-03-21 10:15:00,
2013-03-21 06:20:00,0.0,0.0,29.77,NE,53,8.1,11.0,0,0.00,,---,0.00,VWS V14.01,2013-03-21 10:20:00,
2013-03-21 06:25:00,0.0,0.0,29.77,NE,49,6.3,7.6,0,0.00,,---,0.00,VWS V14.01,2013-03-21 10:25:00,
2013-03-21 06:30:00,0.0,0.0,29.77,NNE,22,3.1,4.0,0,0.00,,---,0.00,VWS V14.01,2013-03-21 10:30:00,
2013-03-21 06:35:00,0.0,0.0,29.77,North,3,11.0,11.0,0,0.00,,---,0.00,VWS V14.01,2013-03-21 10:35:00,
2013-03-21 06:40:00,0.0,0.0,29.77,North,10,6.7,7.6,0,0.00,,---,0.00,VWS V14.01,2013-03-21 10:40:00,
2013-03-21 06:45:00,0.0,0.0,29.77,North,7,4.0,5.8,0,0.00,,---,0.00,VWS V14.01,2013-03-21 10:45:00,
2013-03-21 06:50:00,0.0,0.0,29.77,NNW,345,4.9,10.5,0,0.00,,---,0.00,VWS V14.01,2013-03-21 10:50:00,
2013-03-21 06:55:00,0.0,0.0,29.77,NNE,30,8.3,8.7,0,0.00,,---,0.00,VWS V14.01,2013-03-21 10:55:00,
2013-03-21 07:00:00,0.0,0.0,29.77,North,0,6.7,6.7,0,0.00,,---,0.00,VWS V14.01,2013-03-21 11:00:00,
2013-03-21 07:05:00,0.0,0.0,29.77,North,11,8.7,8.7,0,0.00,,---,0.00,VWS V14.01,2013-03-21 11:05:00,
2013-03-21 07:10:00,0.0,0.0,29.77,North,357,4.9,10.1,0,0.00,,---,0.00,VWS V14.01,2013-03-21 11:10:00,
2013-03-21 07:15:00,0.0,0.0,29.77,NNW,346,9.6,9.6,0,0.00,,---,0.00,VWS V14.01,2013-03-21 11:15:00,
2013-03-21 07:20:00,0.0,0.0,29.77,North,357,5.8,7.2,0,0.00,,---,0.00,VWS V14.01,2013-03-21 11:20:00,
2013-03-21 07:25:00,0.0,0.0,29.77,NNE,24,3.6,8.7,0,0.00,,---,0.00,VWS V14.01,2013-03-21 11:25:00,
2013-03-21 07:30:00,0.0,0.0,29.80,NE,39,7.6,10.1,0,0.00,,---,0.00,VWS V14.01,2013-03-21 11:30:00,
2013-03-21 07:35:00,0.0,0.0,29.80,NE,35,4.9,5.8,0,0.00,,---,0.00,VWS V14.01,2013-03-21 11:35:00,
2013-03-21 07:40:00,0.0,0.0,29.80,NNE,32,5.8,5.8,0,0.00,,---,0.00,VWS V14.01,2013-03-21 11:40:00,
2013-03-21 07:45:00,0.0,0.0,29.77,NNE,30,7.2,8.3,0,0.00,,---,0.00,VWS V14.01,2013-03-21 11:45:00,
2013-03-21 07:50:00,0.0,0.0,29.77,NE,55,6.3,7.6,0,0.00,,---,0.00,VWS V14.01,2013-03-21 11:50:00,
2013-03-21 07:55:00,0.0,0.0,29.77,NNE,27,5.8,6.3,0,0.00,,---,0.00,VWS V14.01,2013-03-21 11:55:00,
2013-03-21 08:00:00,0.0,0.0,29.77,North,4,7.2,7.2,0,0.00,,---,0.00,VWS V14.01,2013-03-21 12:00:00,
2013-03-21 08:05:00,0.0,0.0,29.77,North,7,6.3,6.3,0,0.00,,---,0.00,VWS V14.01,2013-03-21 12:05:00,
2013-03-21 08:10:00,0.0,0.0,29.77,NNE,22,4.9,8.3,0,0.00,,---,0.00,VWS V14.01,2013-03-21 12:10:00,
2013-03-21 08:15:00,0.0,0.0,29.77,NNE,29,8.3,10.1,0,0.00,,---,0.00,VWS V14.01,2013-03-21 12:15:00,
2013-03-21 08:20:00,0.0,0.0,29.77,NNE,20,3.6,11.0,0,0.00,,---,0.00,VWS V14.01,2013-03-21 12:20:00,
2013-03-21 08:25:00,0.0,0.0,29.77,NE,34,5.4,6.3,0,0.00,,---,0.00,VWS V14.01,2013-03-21 12:25:00,
2013-03-21 08:30:00,0.0,0.0,29.77,NE,39,11.0,11.0,0,0.00,,---,0.00,VWS V14.01,2013-03-21 12:30:00,
2013-03-21 08:35:00,0.0,0.0,29.77,NNE,30,5.4,5.8,0,0.00,,---,0.00,VWS V14.01,2013-03-21 12:35:00,
2013-03-21 08:40:00,0.0,0.0,29.77,NE,48,7.6,10.5,0,0.00,,---,0.00,VWS V14.01,2013-03-21 12:40:00,
2013-03-21 08:45:00,0.0,0.0,29.77,North,350,4.0,8.3,0,0.00,,---,0.00,VWS V14.01,2013-03-21 12:45:00,
2013-03-21 08:50:00,0.0,0.0,29.77,NE,49,5.8,8.3,0,0.00,,---,0.00,VWS V14.01,2013-03-21 12:50:00,
2013-03-21 08:55:00,0.0,0.0,29.77,North,3,7.6,8.1,0,0.00,,---,0.00,VWS V14.01,2013-03-21 12:55:00,
2013-03-21 09:00:00,0.0,0.0,29.77,NNE,28,12.3,12.3,0,0.00,,---,0.00,VWS V14.01,2013-03-21 13:00:00,
2013-03-21 09:05:00,0.0,0.0,29.77,NNE,25,8.3,12.3,0,0.00,,---,0.00,VWS V14.01,2013-03-21 13:05:00,
2013-03-21 09:10:00,0.0,0.0,29.77,NNW,346,7.6,10.1,0,0.00,,---,0.00,VWS V14.01,2013-03-21 13:10:00,
2013-03-21 09:15:00,0.0,0.0,29.77,NNE,19,8.1,8.7,0,0.00,,---,0.00,VWS V14.01,2013-03-21 13:15:00,
2013-03-21 09:20:00,0.0,0.0,29.77,NNE,25,6.3,8.3,0,0.00,,---,0.00,VWS V14.01,2013-03-21 13:20:00,
2013-03-21 09:25:00,0.0,0.0,29.77,ENE,67,6.3,8.7,0,0.00,,---,0.00,VWS V14.01,2013-03-21 13:25:00,
2013-03-21 09:30:00,0.0,0.0,29.77,NNE,31,3.1,8.1,0,0.00,,---,0.00,VWS V14.01,2013-03-21 13:30:00,
2013-03-21 09:36:00,0.0,0.0,29.77,NE,52,9.2,15.0,0,0.00,,---,0.00,VWS V14.01,2013-03-21 13:36:00,
2013-03-21 09:41:00,0.0,0.0,29.77,NNE,17,6.3,10.5,0,0.00,,---,0.00,VWS V14.01,2013-03-21 13:41:00,
2013-03-21 09:46:00,0.0,0.0,29.77,North,4,11.0,11.0,0,0.00,,---,0.00,VWS V14.01,2013-03-21 13:46:00,
2013-03-21 09:51:00,0.0,0.0,29.77,NE,50,4.0,6.3,0,0.00,,---,0.00,VWS V14.01,2013-03-21 13:51:00,
2013-03-21 09:56:00,0.0,0.0,29.77,NNE,13,6.7,7.6,0,0.00,,---,0.00,VWS V14.01,2013-03-21 13:56:00,
2013-03-21 10:01:00,0.0,0.0,29.77,North,1,3.1,8.7,0,0.00,,---,0.00,VWS V14.01,2013-03-21 14:01:00,
2013-03-21 10:06:00,0.0,0.0,29.77,NNE,16,5.8,8.3,0,0.00,,---,0.00,VWS V14.01,2013-03-21 14:06:00,
2013-03-21 10:11:00,0.0,0.0,29.77,NE,39,12.8,12.8,0,0.00,,---,0.00,VWS V14.01,2013-03-21 14:11:00,
2013-03-21 10:16:00,0.0,0.0,29.77,North,357,8.1,10.1,0,0.00,,---,0.00,VWS V14.01,2013-03-21 14:16:00,
2013-03-21 10:22:00,0.0,0.0,29.77,North,353,6.3,8.3,0,0.00,,---,0.00,VWS V14.01,2013-03-21 14:22:00,
2013-03-21 10:27:00,0.0,0.0,29.77,NNE,32,6.3,6.3,0,0.00,,---,0.00,VWS V14.01,2013-03-21 14:27:00,
2013-03-21 10:33:00,0.0,0.0,29.77,North,357,8.7,11.0,0,0.00,,---,0.00,VWS V14.01,2013-03-21 14:33:00,
2013-03-21 10:38:00,0.0,0.0,29.77,NNE,25,5.8,8.7,0,0.00,,---,0.00,VWS V14.01,2013-03-21 14:38:00,
2013-03-21 10:44:00,0.0,0.0,29.77,NNE,23,3.6,8.1,0,0.00,,---,0.00,VWS V14.01,2013-03-21 14:44:00,
2013-03-21 10:49:00,0.0,0.0,29.77,North,2,3.1,7.2,0,0.00,,---,0.00,VWS V14.01,2013-03-21 14:49:00,
2013-03-21 10:54:00,0.0,0.0,29.77,North,357,8.3,10.1,0,0.00,,---,0.00,VWS V14.01,2013-03-21 14:54:00,
2013-03-21 10:59:00,0.0,0.0,29.77,North,353,6.7,13.6,0,0.00,,---,0.00,VWS V14.01,2013-03-21 14:59:00,
2013-03-21 11:05:00,0.0,0.0,29.77,NNE,28,8.1,9.6,0,0.00,,---,0.00,VWS V14.01,2013-03-21 15:05:00,
2013-03-21 11:11:00,0.0,0.0,29.77,North,8,4.0,11.4,0,0.00,,---,0.00,VWS V14.01,2013-03-21 15:11:00,
2013-03-21 11:16:00,0.0,0.0,29.77,East,88,8.1,10.1,0,0.00,,---,0.00,VWS V14.01,2013-03-21 15:16:00,
2013-03-21 11:21:00,0.0,0.0,29.77,North,6,7.6,11.9,0,0.00,,---,0.00,VWS V14.01,2013-03-21 15:21:00,
2013-03-21 11:26:00,0.0,0.0,29.77,NE,35,3.1,6.7,0,0.00,,---,0.00,VWS V14.01,2013-03-21 15:26:00,
2013-03-21 11:32:00,0.0,0.0,29.77,North,0,12.3,12.8,0,0.00,,---,0.00,VWS V14.01,2013-03-21 15:32:00,
2013-03-21 11:37:00,0.0,0.0,29.77,NNW,346,8.7,8.7,0,0.00,,---,0.00,VWS V14.01,2013-03-21 15:37:00,
2013-03-21 11:42:00,0.0,0.0,29.77,North,2,5.8,8.1,0,0.00,,---,0.00,VWS V14.01,2013-03-21 15:42:00,
2013-03-21 11:47:00,0.0,0.0,29.77,North,357,8.1,8.1,0,0.00,,---,0.00,VWS V14.01,2013-03-21 15:47:00,
2013-03-21 11:52:00,0.0,0.0,29.77,ENE,58,8.7,8.7,0,0.00,,---,0.00,VWS V14.01,2013-03-21 15:52:00,
2013-03-21 11:57:00,0.0,0.0,29.77,NNE,26,3.6,7.6,0,0.00,,---,0.00,VWS V14.01,2013-03-21 15:57:00,
2013-03-21 12:02:00,0.0,0.0,29.77,North,0,10.5,10.5,0,0.00,,---,0.00,VWS V14.01,2013-03-21 16:02:00,
2013-03-21 12:07:00,0.0,0.0,29.77,North,357,3.6,8.7,0,0.00,,---,0.00,VWS V14.01,2013-03-21 16:07:00,
2013-03-21 12:12:00,0.0,0.0,29.77,NNW,331,5.4,7.6,0,0.00,,---,0.00,VWS V14.01,2013-03-21 16:12:00,
2013-03-21 12:17:00,0.0,0.0,29.74,NNE,25,6.3,7.6,0,0.00,,---,0.00,VWS V14.01,2013-03-21 16:17:00,
2013-03-21 12:22:00,0.0,0.0,29.74,North,7,7.2,11.4,0,0.00,,---,0.00,VWS V14.01,2013-03-21 16:22:00,
2013-03-21 12:27:00,0.0,0.0,29.74,NE,49,4.0,6.3,0,0.00,,---,0.00,VWS V14.01,2013-03-21 16:27:00,
2013-03-21 12:32:00,0.0,0.0,29.77,NNE,24,6.3,10.1,0,0.00,,---,0.00,VWS V14.01,2013-03-21 16:32:00,
2013-03-21 12:37:00,0.0,0.0,29.77,North,1,4.0,4.9,0,0.00,,---,0.00,VWS V14.01,2013-03-21 16:37:00,
2013-03-21 12:42:00,0.0,0.0,29.77,NNW,344,4.0,5.4,0,0.00,,---,0.00,VWS V14.01,2013-03-21 16:42:00,
2013-03-21 12:47:00,0.0,0.0,29.77,North,0,8.1,8.7,0,0.00,,---,0.00,VWS V14.01,2013-03-21 16:47:00,
2013-03-21 12:52:00,0.0,0.0,29.77,NNW,341,5.4,8.3,0,0.00,,---,0.00,VWS V14.01,2013-03-21 16:52:00,
2013-03-21 12:57:00,0.0,0.0,29.77,North,7,3.1,3.1,0,0.00,,---,0.00,VWS V14.01,2013-03-21 16:57:00,
2013-03-21 13:02:00,0.0,0.0,29.74,NNE,29,3.6,10.1,0,0.00,,---,0.00,VWS V14.01,2013-03-21 17:02:00,
2013-03-21 13:07:00,0.0,0.0,29.74,NE,35,5.8,5.8,0,0.00,,---,0.00,VWS V14.01,2013-03-21 17:07:00,
2013-03-21 13:12:00,0.0,0.0,29.74,North,3,3.6,8.7,0,0.00,,---,0.00,VWS V14.01,2013-03-21 17:12:00,
2013-03-21 13:17:00,0.0,0.0,29.74,NNE,22,3.1,3.1,0,0.00,,---,0.00,VWS V14.01,2013-03-21 17:17:00,
2013-03-21 13:23:00,0.0,0.0,29.74,NNE,22,5.8,6.3,0,0.00,,---,0.00,VWS V14.01,2013-03-21 17:23:00,
2013-03-21 13:28:00,0.0,0.0,29.74,North,0,3.6,6.3,0,0.00,,---,0.00,VWS V14.01,2013-03-21 17:28:00,
2013-03-21 13:34:00,0.0,0.0,29.74,North,10,6.3,6.3,0,0.00,,---,0.00,VWS V14.01,2013-03-21 17:34:00,
2013-03-21 13:39:00,0.0,0.0,29.74,NNE,28,5.8,10.5,0,0.00,,---,0.00,VWS V14.01,2013-03-21 17:39:00,
2013-03-21 13:45:00,0.0,0.0,29.74,NW,319,6.3,6.3,0,0.00,,---,0.00,VWS V14.01,2013-03-21 17:45:00,
2013-03-21 13:50:00,0.0,0.0,29.74,NNE,29,3.6,5.8,0,0.00,,---,0.00,VWS V14.01,2013-03-21 17:50:00,
2013-03-21 13:57:00,0.0,0.0,29.74,NNE,12,3.6,5.4,0,0.00,,---,0.00,VWS V14.01,2013-03-21 17:57:00,
2013-03-21 14:03:00,0.0,0.0,29.74,NW,326,5.8,5.8,0,0.00,,---,0.00,VWS V14.01,2013-03-21 18:03:00,
2013-03-21 14:08:00,0.0,0.0,29.74,NNW,340,2.7,4.0,0,0.00,,---,0.00,VWS V14.01,2013-03-21 18:08:00,
2013-03-21 14:13:00,0.0,0.0,29.74,North,357,4.0,4.0,0,0.00,,---,0.00,VWS V14.01,2013-03-21 18:13:00,
2013-03-21 14:18:00,0.0,0.0,29.74,North,3,4.0,7.6,0,0.00,,---,0.00,VWS V14.01,2013-03-21 18:18:00,
2013-03-21 14:23:00,0.0,0.0,29.74,North,357,3.1,4.9,0,0.00,,---,0.00,VWS V14.01,2013-03-21 18:23:00,
2013-03-21 14:28:00,0.0,0.0,29.74,North,357,2.7,4.0,0,0.00,,---,0.00,VWS V14.01,2013-03-21 18:28:00,
2013-03-21 14:33:00,0.0,0.0,29.74,NNE,26,4.0,5.8,0,0.00,,---,0.00,VWS V14.01,2013-03-21 18:33:00,
2013-03-21 14:38:00,0.0,0.0,29.74,NNW,339,5.8,5.8,0,0.00,,---,0.00,VWS V14.01,2013-03-21 18:38:00,
2013-03-21 14:43:00,0.0,0.0,29.74,North,353,5.8,5.8,0,0.00,,---,0.00,VWS V14.01,2013-03-21 18:43:00,
2013-03-21 14:48:00,0.0,0.0,29.71,North,1,6.3,6.3,0,0.00,,---,0.00,VWS V14.01,2013-03-21 18:48:00,
2013-03-21 14:53:00,0.0,0.0,29.71,NNW,340,4.0,4.0,0,0.04,,---,0.04,VWS V14.01,2013-03-21 18:53:00,
2013-03-21 14:58:00,0.0,0.0,29.71,North,5,3.1,3.1,0,0.04,,---,0.04,VWS V14.01,2013-03-21 18:58:00,
2013-03-21 15:03:00,0.0,0.0,29.71,North,357,5.4,5.8,0,0.04,,---,0.04,VWS V14.01,2013-03-21 19:03:00,
2013-03-21 15:08:00,0.0,0.0,29.71,NE,51,6.3,6.3,0,0.04,,---,0.04,VWS V14.01,2013-03-21 19:08:00,
2013-03-21 15:13:00,0.0,0.0,29.71,NNW,346,8.1,8.1,0,0.04,,---,0.04,VWS V14.01,2013-03-21 19:13:00,
2013-03-21 15:18:00,0.0,0.0,29.71,NNE,20,6.3,6.3,0,0.04,,---,0.00,VWS V14.01,2013-03-21 19:18:00,
2013-03-21 15:23:00,0.0,0.0,29.71,North,7,6.7,6.7,0,0.04,,---,0.04,VWS V14.01,2013-03-21 19:23:00,
2013-03-21 15:28:00,0.0,0.0,29.71,North,9,5.8,5.8,0,0.04,,---,0.04,VWS V14.01,2013-03-21 19:28:00,
2013-03-21 15:33:00,0.0,0.0,29.71,NW,309,3.1,8.1,0,0.04,,---,0.00,VWS V14.01,2013-03-21 19:33:00,
2013-03-21 15:38:00,0.0,0.0,29.71,North,0,3.1,4.0,0,0.04,,---,0.00,VWS V14.01,2013-03-21 19:38:00,
2013-03-21 15:43:00,0.0,0.0,29.71,North,353,5.4,6.3,0,0.04,,---,0.04,VWS V14.01,2013-03-21 19:43:00,
2013-03-21 15:48:00,0.0,0.0,29.71,North,5,2.7,3.1,0,0.04,,---,0.04,VWS V14.01,2013-03-21 19:48:00,
2013-03-21 15:53:00,0.0,0.0,29.71,NNW,341,3.1,4.0,0,0.00,,---,0.04,VWS V14.01,2013-03-21 19:53:00,
2013-03-21 15:58:00,0.0,0.0,29.71,ENE,57,0.0,3.1,0,0.00,,---,0.04,VWS V14.01,2013-03-21 19:58:00,
2013-03-21 16:03:00,0.0,0.0,29.71,North,2,3.1,3.1,0,0.00,,---,0.04,VWS V14.01,2013-03-21 20:03:00,
2013-03-21 16:08:00,0.0,0.0,29.71,North,353,2.7,4.0,0,0.00,,---,0.04,VWS V14.01,2013-03-21 20:08:00,
2013-03-21 16:13:00,0.0,0.0,29.71,NNE,21,4.9,6.3,0,0.00,,---,0.04,VWS V14.01,2013-03-21 20:13:00,
2013-03-21 16:18:00,0.0,0.0,29.71,NNE,25,3.1,6.3,0,0.00,,---,0.04,VWS V14.01,2013-03-21 20:18:00,
2013-03-21 16:23:00,0.0,0.0,29.71,NNE,17,5.4,6.3,0,0.00,,---,0.04,VWS V14.01,2013-03-21 20:23:00,
2013-03-21 16:28:00,0.0,0.0,29.71,NNE,14,2.7,4.9,0,0.00,,---,0.04,VWS V14.01,2013-03-21 20:28:00,
2013-03-21 16:33:00,0.0,0.0,29.71,NNW,343,3.1,5.8,0,0.00,,---,0.00,VWS V14.01,2013-03-21 20:33:00,
2013-03-21 16:38:00,0.0,0.0,29.71,NNW,331,8.3,8.3,0,0.00,,---,0.04,VWS V14.01,2013-03-21 20:38:00,
2013-03-21 16:43:00,0.0,0.0,29.71,WNW,292,5.8,6.3,0,0.00,,---,0.04,VWS V14.01,2013-03-21 20:43:00,
2013-03-21 16:48:00,0.0,0.0,29.71,NW,315,8.1,9.6,0,0.00,,---,0.04,VWS V14.01,2013-03-21 20:48:00,
2013-03-21 16:53:00,0.0,0.0,29.71,NE,43,10.5,10.5,0,0.00,,---,0.04,VWS V14.01,2013-03-21 20:53:00,
2013-03-21 16:58:00,0.0,0.0,29.71,NNW,346,7.2,8.7,0,0.00,,---,0.04,VWS V14.01,2013-03-21 20:58:00,
2013-03-21 17:03:00,0.0,0.0,29.71,WNW,302,5.8,12.8,0,0.00,,---,0.04,VWS V14.01,2013-03-21 21:03:00,
2013-03-21 17:08:00,0.0,0.0,29.71,North,2,11.0,11.0,0,0.00,,---,0.04,VWS V14.01,2013-03-21 21:08:00,
2013-03-21 17:13:00,0.0,0.0,29.71,NW,316,11.0,11.0,0,0.00,,---,0.04,VWS V14.01,2013-03-21 21:13:00,
2013-03-21 17:18:00,0.0,0.0,29.71,North,353,3.6,8.1,0,0.00,,---,0.04,VWS V14.01,2013-03-21 21:18:00,
2013-03-21 17:23:00,0.0,0.0,29.71,NW,312,8.7,8.7,0,0.00,,---,0.04,VWS V14.01,2013-03-21 21:23:00,
2013-03-21 17:28:00,0.0,0.0,29.71,NW,311,15.0,15.0,0,0.00,,---,0.04,VWS V14.01,2013-03-21 21:28:00,
2013-03-21 17:33:00,0.0,0.0,29.71,NW,321,13.2,13.2,0,0.00,,---,0.04,VWS V14.01,2013-03-21 21:33:00,
2013-03-21 17:38:00,0.0,0.0,29.71,North,353,4.9,8.1,0,0.00,,---,0.04,VWS V14.01,2013-03-21 21:38:00,
2013-03-21 17:43:00,0.0,0.0,29.71,NW,305,4.0,8.3,0,0.00,,---,0.04,VWS V14.01,2013-03-21 21:43:00,
2013-03-21 17:48:00,0.0,0.0,29.71,WNW,295,3.6,3.6,0,0.00,,---,0.04,VWS V14.01,2013-03-21 21:48:00,
2013-03-21 17:53:00,0.0,0.0,29.71,WNW,302,5.4,8.3,0,0.00,,---,0.04,VWS V14.01,2013-03-21 21:53:00,
2013-03-21 17:58:00,0.0,0.0,29.71,NNW,332,7.6,8.3,0,0.00,,---,0.04,VWS V14.01,2013-03-21 21:58:00,
2013-03-21 18:03:00,0.0,0.0,29.71,NNE,16,13.2,13.6,0,0.00,,---,0.04,VWS V14.01,2013-03-21 22:03:00,
2013-03-21 18:08:00,0.0,0.0,29.71,NNW,339,13.2,13.2,0,0.00,,---,0.04,VWS V14.01,2013-03-21 22:08:00,
2013-03-21 18:13:00,0.0,0.0,29.74,NNW,344,5.8,8.1,0,0.00,,---,0.04,VWS V14.01,2013-03-21 22:13:00,
2013-03-21 18:18:00,0.0,0.0,29.74,North,0,5.4,5.4,0,0.00,,---,0.04,VWS V14.01,2013-03-21 22:18:00,
2013-03-21 18:23:00,0.0,0.0,29.74,NNW,337,5.8,10.5,0,0.00,,---,0.04,VWS V14.01,2013-03-21 22:23:00,
2013-03-21 18:28:00,0.0,0.0,29.74,North,8,7.6,7.6,0,0.00,,---,0.04,VWS V14.01,2013-03-21 22:28:00,
2013-03-21 18:33:00,0.0,0.0,29.74,NNW,339,10.1,10.1,0,0.00,,---,0.00,VWS V14.01,2013-03-21 22:33:00,
2013-03-21 18:38:00,0.0,0.0,29.74,NW,319,5.8,8.1,0,0.00,,---,0.04,VWS V14.01,2013-03-21 22:38:00,
2013-03-21 18:43:00,0.0,0.0,29.74,NW,308,8.3,8.3,0,0.00,,---,0.04,VWS V14.01,2013-03-21 22:43:00,
2013-03-21 18:48:00,0.0,0.0,29.74,NNW,329,3.1,10.5,0,0.00,,---,0.04,VWS V14.01,2013-03-21 22:48:00,
2013-03-21 18:53:00,0.0,0.0,29.74,NW,320,7.6,8.1,0,0.00,,---,0.04,VWS V14.01,2013-03-21 22:53:00,
2013-03-21 18:58:00,0.0,0.0,29.74,NW,307,14.5,15.4,0,0.00,,---,0.04,VWS V14.01,2013-03-21 22:58:00,
2013-03-21 19:03:00,0.0,0.0,29.74,NW,307,8.3,11.0,0,0.00,,---,0.04,VWS V14.01,2013-03-21 23:03:00,
2013-03-21 19:09:00,0.0,0.0,29.74,NW,305,11.0,13.2,0,0.00,,---,0.04,VWS V14.01,2013-03-21 23:09:00,
2013-03-21 19:14:00,0.0,0.0,29.74,NW,323,8.1,10.5,0,0.00,,---,0.04,VWS V14.01,2013-03-21 23:14:00,
2013-03-21 19:19:00,0.0,0.0,29.74,NW,316,6.3,8.7,0,0.00,,---,0.04,VWS V14.01,2013-03-21 23:19:00,
2013-03-21 19:24:00,0.0,0.0,29.74,NW,318,5.8,12.3,0,0.00,,---,0.04,VWS V14.01,2013-03-21 23:24:00,
2013-03-21 19:29:00,0.0,0.0,29.77,NW,316,6.3,8.1,0,0.00,,---,0.00,VWS V14.01,2013-03-21 23:29:00,
2013-03-21 19:34:00,0.0,0.0,29.77,NNW,332,5.4,6.7,0,0.00,,---,0.00,VWS V14.01,2013-03-21 23:34:00,
2013-03-21 19:39:00,0.0,0.0,29.77,NW,316,10.1,10.5,0,0.00,,---,0.04,VWS V14.01,2013-03-21 23:39:00,
2013-03-21 19:44:00,0.0,0.0,29.77,NNW,336,5.8,8.7,0,0.00,,---,0.04,VWS V14.01,2013-03-21 23:44:00,
2013-03-21 19:49:00,0.0,0.0,29.77,NNW,346,5.4,8.1,0,0.00,,---,0.04,VWS V14.01,2013-03-21 23:49:00,
2013-03-21 19:54:00,0.0,0.0,29.77,NNE,19,8.7,12.3,0,0.00,,---,0.00,VWS V14.01,2013-03-21 23:54:00,
2013-03-21 19:59:00,0.0,0.0,29.77,North,0,7.6,10.1,0,0.00,,---,0.04,VWS V14.01,2013-03-21 23:59:00,
2013-03-21 20:04:00,0.0,0.0,29.77,NNE,14,5.8,7.2,0,0.00,,---,0.04,VWS V14.01,2013-03-22 00:04:00,
2013-03-21 20:09:00,0.0,0.0,29.77,NNW,346,10.5,11.0,0,0.00,,---,0.04,VWS V14.01,2013-03-22 00:09:00,
2013-03-21 20:14:00,0.0,0.0,29.77,NW,310,4.0,8.1,0,0.00,,---,0.04,VWS V14.01,2013-03-22 00:14:00,
2013-03-21 20:19:00,0.0,0.0,29.77,NNW,334,11.0,11.0,0,0.00,,---,0.04,VWS V14.01,2013-03-22 00:19:00,
2013-03-21 20:24:00,0.0,0.0,29.77,NW,324,5.8,5.8,0,0.00,,---,0.04,VWS V14.01,2013-03-22 00:24:00,
2013-03-21 20:29:00,0.0,0.0,29.80,NW,324,8.1,11.0,0,0.00,,---,0.04,VWS V14.01,2013-03-22 00:29:00,
2013-03-21 20:34:00,0.0,0.0,29.80,NNW,334,8.1,8.1,0,0.00,,---,0.00,VWS V14.01,2013-03-22 00:34:00,
2013-03-21 20:39:00,0.0,0.0,29.80,NNW,341,11.0,11.0,0,0.00,,---,0.04,VWS V14.01,2013-03-22 00:39:00,
2013-03-21 20:44:00,0.0,0.0,29.80,NW,324,8.7,8.7,0,0.00,,---,0.04,VWS V14.01,2013-03-22 00:44:00,
2013-03-21 20:49:00,0.0,0.0,29.80,NW,322,11.0,11.0,0,0.00,,---,0.04,VWS V14.01,2013-03-22 00:49:00,
2013-03-21 20:54:00,0.0,0.0,29.80,NNW,334,8.1,8.1,0,0.00,,---,0.04,VWS V14.01,2013-03-22 00:54:00,
2013-03-21 20:59:00,0.0,0.0,29.80,WNW,299,9.2,9.2,0,0.00,,---,0.04,VWS V14.01,2013-03-22 00:59:00,
2013-03-21 21:04:00,0.0,0.0,29.80,North,0,12.8,12.8,0,0.00,,---,0.04,VWS V14.01,2013-03-22 01:04:00,
2013-03-21 21:09:00,0.0,0.0,29.80,NNW,341,8.7,8.7,0,0.00,,---,0.04,VWS V14.01,2013-03-22 01:09:00,
2013-03-21 21:14:00,0.0,0.0,29.80,NNW,338,5.8,8.3,0,0.00,,---,0.04,VWS V14.01,2013-03-22 01:14:00,
2013-03-21 21:19:00,0.0,0.0,29.80,NNE,13,8.3,8.7,0,0.00,,---,0.04,VWS V14.01,2013-03-22 01:19:00,
2013-03-21 21:24:00,0.0,0.0,29.80,North,353,11.0,14.5,0,0.00,,---,0.04,VWS V14.01,2013-03-22 01:24:00,
2013-03-21 21:29:00,0.0,0.0,29.80,NW,316,12.8,12.8,0,0.00,,---,0.00,VWS V14.01,2013-03-22 01:29:00,
2013-03-21 21:34:00,0.0,0.0,29.80,NNW,335,12.8,12.8,0,0.00,,---,0.00,VWS V14.01,2013-03-22 01:34:00,
2013-03-21 21:39:00,0.0,0.0,29.80,NW,318,10.5,11.0,0,0.00,,---,0.04,VWS V14.01,2013-03-22 01:39:00,
2013-03-21 21:44:00,0.0,0.0,29.80,WNW,283,3.1,9.6,0,0.00,,---,0.04,VWS V14.01,2013-03-22 01:44:00,
2013-03-21 21:49:00,0.0,0.0,29.80,WNW,287,8.7,8.7,0,0.00,,---,0.04,VWS V14.01,2013-03-22 01:49:00,
2013-03-21 21:54:00,0.0,0.0,29.80,NNW,327,11.9,11.9,0,0.00,,---,0.04,VWS V14.01,2013-03-22 01:54:00,
2013-03-21 21:59:00,0.0,0.0,29.80,NW,307,15.4,15.4,0,0.00,,---,0.04,VWS V14.01,2013-03-22 01:59:00,
2013-03-21 22:04:00,0.0,0.0,29.80,NW,322,9.2,13.6,0,0.00,,---,0.04,VWS V14.01,2013-03-22 02:04:00,
2013-03-21 22:09:00,0.0,0.0,29.80,NNW,337,8.1,13.2,0,0.00,,---,0.04,VWS V14.01,2013-03-22 02:09:00,
2013-03-21 22:14:00,0.0,0.0,29.83,NNW,338,9.6,9.6,0,0.00,,---,0.04,VWS V14.01,2013-03-22 02:14:00,
2013-03-21 22:19:00,0.0,0.0,29.83,NNE,24,11.0,11.0,0,0.00,,---,0.04,VWS V14.01,2013-03-22 02:19:00,
2013-03-21 22:24:00,0.0,0.0,29.83,NW,314,11.0,11.0,0,0.00,,---,0.04,VWS V14.01,2013-03-22 02:24:00,
2013-03-21 22:29:00,0.0,0.0,29.83,NNW,340,7.2,8.7,0,0.00,,---,0.04,VWS V14.01,2013-03-22 02:29:00,
2013-03-21 22:34:00,0.0,0.0,29.83,North,1,15.0,15.0,0,0.00,,---,0.04,VWS V14.01,2013-03-22 02:34:00,
2013-03-21 22:39:00,0.0,0.0,29.83,NW,324,3.1,5.8,0,0.00,,---,0.04,VWS V14.01,2013-03-22 02:39:00,
2013-03-21 22:44:00,0.0,0.0,29.83,NW,321,10.1,11.0,0,0.00,,---,0.04,VWS V14.01,2013-03-22 02:44:00,
2013-03-21 22:49:00,0.0,0.0,29.83,WNW,292,10.5,10.5,0,0.00,,---,0.04,VWS V14.01,2013-03-22 02:49:00,
2013-03-21 22:54:00,0.0,0.0,29.83,NNW,329,11.0,11.0,0,0.00,,---,0.04,VWS V14.01,2013-03-22 02:54:00,
2013-03-21 22:59:00,0.0,0.0,29.83,NW,315,8.7,8.7,0,0.00,,---,0.04,VWS V14.01,2013-03-22 02:59:00,
2013-03-21 23:04:00,0.0,0.0,29.83,NW,305,7.6,8.7,0,0.00,,---,0.04,VWS V14.01,2013-03-22 03:04:00,
2013-03-21 23:09:00,0.0,0.0,29.83,NW,320,10.1,11.0,0,0.00,,---,0.04,VWS V14.01,2013-03-22 03:09:00,
2013-03-21 23:14:00,0.0,0.0,29.83,WNW,297,8.3,15.4,0,0.00,,---,0.04,VWS V14.01,2013-03-22 03:14:00,
2013-03-21 23:19:00,0.0,0.0,29.83,NW,324,8.3,8.7,0,0.00,,---,0.04,VWS V14.01,2013-03-22 03:19:00,
2013-03-21 23:24:00,0.0,0.0,29.83,North,353,7.6,10.1,0,0.00,,---,0.00,VWS V14.01,2013-03-22 03:24:00,
2013-03-21 23:29:00,0.0,0.0,29.85,NNW,346,7.6,8.3,0,0.00,,---,0.04,VWS V14.01,2013-03-22 03:29:00,
2013-03-21 23:34:00,0.0,0.0,29.85,North,353,8.7,8.7,0,0.00,,---,0.04,VWS V14.01,2013-03-22 03:34:00,
2013-03-21 23:39:00,0.0,0.0,29.85,NW,312,10.1,10.1,0,0.00,,---,0.04,VWS V14.01,2013-03-22 03:39:00,
2013-03-21 23:44:00,0.0,0.0,29.85,WNW,297,10.5,10.5,0,0.00,,---,0.04,VWS V14.01,2013-03-22 03:44:00,
2013-03-21 23:49:00,0.0,0.0,29.85,WNW,302,10.1,11.9,0,0.00,,---,0.04,VWS V14.01,2013-03-22 03:49:00,
2013-03-21 23:54:00,0.0,0.0,29.85,NNW,329,8.1,13.2,0,0.00,,---,0.04,VWS V14.01,2013-03-22 03:54:00,
2013-03-21 23:59:00,0.0,0.0,29.85,WNW,288,10.5,10.5,0,0.00,,---,0.04,VWS V14.01,2013-03-22 03:59:00,